sensor_id;sensor_type;location;lat;lon;timestamp;P1;durP1;ratioP1;P2;durP2;ratioP2
5622;SDS011;2833;50.432;10.706;2024-03-17T00:01:41;2.20;;;2.00;;
5622;SDS011;2833;50.432;10.706;2024-03-17T00:04:06;2.90;;;2.07;;
5622;SDS011;2833;50.432;10.706;2024-03-17T00:06:31;26.47;;;12.57;;
5622;SDS011;2833;50.432;10.706;2024-03-17T00:08:57;10.13;;;5.93;;
5622;SDS011;2833;50.432;10.706;2024-03-17T00:11:22;8.43;;;4.90;;
5622;SDS011;2833;50.432;10.706;2024-03-17T00:13:47;5.40;;;3.10;;
5622;SDS011;2833;50.432;10.706;2024-03-17T00:16:13;5.40;;;3.60;;
5622;SDS011;2833;50.432;10.706;2024-03-17T00:18:39;3.20;;;2.13;;
5622;SDS011;2833;50.432;10.706;2024-03-17T00:21:04;2.10;;;1.90;;
5622;SDS011;2833;50.432;10.706;2024-03-17T00:23:29;3.00;;;1.83;;
5622;SDS011;2833;50.432;10.706;2024-03-17T00:25:54;3.07;;;1.67;;
5622;SDS011;2833;50.432;10.706;2024-03-17T00:28:20;2.50;;;1.70;;
5622;SDS011;2833;50.432;10.706;2024-03-17T00:30:45;3.47;;;1.80;;
5622;SDS011;2833;50.432;10.706;2024-03-17T00:33:11;4.90;;;2.10;;
5622;SDS011;2833;50.432;10.706;2024-03-17T00:35:36;1.60;;;1.50;;
5622;SDS011;2833;50.432;10.706;2024-03-17T00:38:01;1.60;;;1.50;;
5622;SDS011;2833;50.432;10.706;2024-03-17T00:40:31;2.13;;;1.83;;
5622;SDS011;2833;50.432;10.706;2024-03-17T00:42:56;1.93;;;1.60;;
5622;SDS011;2833;50.432;10.706;2024-03-17T00:45:21;1.90;;;1.80;;
5622;SDS011;2833;50.432;10.706;2024-03-17T00:47:47;1.80;;;1.70;;
5622;SDS011;2833;50.432;10.706;2024-03-17T00:50:12;2.00;;;1.90;;
5622;SDS011;2833;50.432;10.706;2024-03-17T00:52:37;2.23;;;1.90;;
5622;SDS011;2833;50.432;10.706;2024-03-17T00:55:03;2.47;;;2.00;;
5622;SDS011;2833;50.432;10.706;2024-03-17T00:57:28;3.80;;;2.00;;
5622;SDS011;2833;50.432;10.706;2024-03-17T00:59:53;2.23;;;1.50;;
5622;SDS011;2833;50.432;10.706;2024-03-17T01:02:18;6.20;;;2.07;;
5622;SDS011;2833;50.432;10.706;2024-03-17T01:04:44;2.03;;;1.83;;
5622;SDS011;2833;50.432;10.706;2024-03-17T01:07:09;2.17;;;1.97;;
5622;SDS011;2833;50.432;10.706;2024-03-17T01:09:35;3.70;;;2.77;;
5622;SDS011;2833;50.432;10.706;2024-03-17T01:12:00;2.53;;;1.67;;
5622;SDS011;2833;50.432;10.706;2024-03-17T01:14:26;1.70;;;1.60;;
5622;SDS011;2833;50.432;10.706;2024-03-17T01:16:51;2.03;;;1.83;;
5622;SDS011;2833;50.432;10.706;2024-03-17T01:19:17;2.50;;;2.00;;
5622;SDS011;2833;50.432;10.706;2024-03-17T01:21:42;3.07;;;2.40;;
5622;SDS011;2833;50.432;10.706;2024-03-17T01:24:07;2.30;;;2.10;;
5622;SDS011;2833;50.432;10.706;2024-03-17T01:26:32;4.80;;;2.63;;
5622;SDS011;2833;50.432;10.706;2024-03-17T01:28:58;2.47;;;2.27;;
5622;SDS011;2833;50.432;10.706;2024-03-17T01:31:23;2.60;;;2.13;;
5622;SDS011;2833;50.432;10.706;2024-03-17T01:33:48;3.20;;;2.43;;
5622;SDS011;2833;50.432;10.706;2024-03-17T01:36:13;1.87;;;1.73;;
5622;SDS011;2833;50.432;10.706;2024-03-17T01:38:38;1.67;;;1.57;;
5622;SDS011;2833;50.432;10.706;2024-03-17T01:41:04;2.17;;;1.97;;
5622;SDS011;2833;50.432;10.706;2024-03-17T01:43:29;2.27;;;2.03;;
5622;SDS011;2833;50.432;10.706;2024-03-17T01:45:55;2.73;;;2.53;;
5622;SDS011;2833;50.432;10.706;2024-03-17T01:48:20;2.60;;;2.30;;
5622;SDS011;2833;50.432;10.706;2024-03-17T01:50:45;4.00;;;2.27;;
5622;SDS011;2833;50.432;10.706;2024-03-17T01:53:13;4.07;;;1.90;;
5622;SDS011;2833;50.432;10.706;2024-03-17T01:55:39;2.40;;;1.90;;
5622;SDS011;2833;50.432;10.706;2024-03-17T01:58:05;2.20;;;2.00;;
5622;SDS011;2833;50.432;10.706;2024-03-17T02:00:32;2.40;;;2.07;;
5622;SDS011;2833;50.432;10.706;2024-03-17T02:02:59;2.97;;;1.97;;
5622;SDS011;2833;50.432;10.706;2024-03-17T02:05:24;3.80;;;2.17;;
5622;SDS011;2833;50.432;10.706;2024-03-17T02:07:49;2.67;;;2.10;;
5622;SDS011;2833;50.432;10.706;2024-03-17T02:10:15;2.70;;;1.90;;
5622;SDS011;2833;50.432;10.706;2024-03-17T02:12:40;2.93;;;2.03;;
5622;SDS011;2833;50.432;10.706;2024-03-17T02:15:05;2.33;;;2.03;;
5622;SDS011;2833;50.432;10.706;2024-03-17T02:17:31;2.03;;;1.77;;
5622;SDS011;2833;50.432;10.706;2024-03-17T02:19:57;2.33;;;1.90;;
5622;SDS011;2833;50.432;10.706;2024-03-17T02:22:22;4.13;;;2.00;;
5622;SDS011;2833;50.432;10.706;2024-03-17T02:24:47;2.97;;;2.50;;
5622;SDS011;2833;50.432;10.706;2024-03-17T02:27:12;3.00;;;2.70;;
5622;SDS011;2833;50.432;10.706;2024-03-17T02:29:38;3.00;;;2.50;;
5622;SDS011;2833;50.432;10.706;2024-03-17T02:32:04;2.50;;;2.30;;
5622;SDS011;2833;50.432;10.706;2024-03-17T02:34:32;2.70;;;2.50;;
5622;SDS011;2833;50.432;10.706;2024-03-17T02:36:58;3.03;;;2.73;;
5622;SDS011;2833;50.432;10.706;2024-03-17T02:39:23;2.40;;;2.20;;
5622;SDS011;2833;50.432;10.706;2024-03-17T02:42:01;2.77;;;2.47;;
5622;SDS011;2833;50.432;10.706;2024-03-17T02:44:26;4.30;;;2.70;;
5622;SDS011;2833;50.432;10.706;2024-03-17T02:46:52;2.97;;;2.03;;
5622;SDS011;2833;50.432;10.706;2024-03-17T02:49:17;2.33;;;2.13;;
5622;SDS011;2833;50.432;10.706;2024-03-17T02:51:43;4.27;;;2.33;;
5622;SDS011;2833;50.432;10.706;2024-03-17T02:54:08;2.67;;;2.10;;
5622;SDS011;2833;50.432;10.706;2024-03-17T02:56:34;2.03;;;1.90;;
5622;SDS011;2833;50.432;10.706;2024-03-17T02:58:59;2.70;;;2.50;;
5622;SDS011;2833;50.432;10.706;2024-03-17T03:01:24;3.20;;;2.30;;
5622;SDS011;2833;50.432;10.706;2024-03-17T03:03:50;2.57;;;2.37;;
5622;SDS011;2833;50.432;10.706;2024-03-17T03:06:15;2.77;;;1.90;;
5622;SDS011;2833;50.432;10.706;2024-03-17T03:08:44;2.80;;;1.93;;
5622;SDS011;2833;50.432;10.706;2024-03-17T03:11:13;2.43;;;2.00;;
5622;SDS011;2833;50.432;10.706;2024-03-17T03:13:39;2.20;;;2.00;;
5622;SDS011;2833;50.432;10.706;2024-03-17T03:16:09;2.27;;;2.07;;
5622;SDS011;2833;50.432;10.706;2024-03-17T03:18:37;2.03;;;1.70;;
5622;SDS011;2833;50.432;10.706;2024-03-17T03:21:04;1.93;;;1.80;;
5622;SDS011;2833;50.432;10.706;2024-03-17T03:23:30;4.20;;;1.90;;
5622;SDS011;2833;50.432;10.706;2024-03-17T03:25:56;2.20;;;2.00;;
5622;SDS011;2833;50.432;10.706;2024-03-17T03:28:22;1.83;;;1.70;;
5622;SDS011;2833;50.432;10.706;2024-03-17T03:30:47;2.07;;;1.90;;
5622;SDS011;2833;50.432;10.706;2024-03-17T03:33:13;2.87;;;1.97;;
5622;SDS011;2833;50.432;10.706;2024-03-17T03:35:38;2.77;;;1.70;;
5622;SDS011;2833;50.432;10.706;2024-03-17T03:38:03;2.87;;;1.90;;
5622;SDS011;2833;50.432;10.706;2024-03-17T03:40:28;2.80;;;1.60;;
5622;SDS011;2833;50.432;10.706;2024-03-17T03:42:54;2.00;;;1.80;;
5622;SDS011;2833;50.432;10.706;2024-03-17T03:45:19;3.27;;;2.00;;
5622;SDS011;2833;50.432;10.706;2024-03-17T03:47:45;1.90;;;1.63;;
5622;SDS011;2833;50.432;10.706;2024-03-17T03:50:11;2.90;;;2.00;;
5622;SDS011;2833;50.432;10.706;2024-03-17T03:52:37;3.93;;;3.10;;
5622;SDS011;2833;50.432;10.706;2024-03-17T03:55:03;2.93;;;2.30;;
5622;SDS011;2833;50.432;10.706;2024-03-17T03:57:29;2.37;;;1.80;;
5622;SDS011;2833;50.432;10.706;2024-03-17T03:59:55;2.17;;;1.80;;
5622;SDS011;2833;50.432;10.706;2024-03-17T04:02:20;3.00;;;2.10;;
5622;SDS011;2833;50.432;10.706;2024-03-17T04:04:46;5.30;;;2.60;;
5622;SDS011;2833;50.432;10.706;2024-03-17T04:07:11;2.73;;;2.30;;
5622;SDS011;2833;50.432;10.706;2024-03-17T04:09:37;7.53;;;3.07;;
5622;SDS011;2833;50.432;10.706;2024-03-17T04:12:02;4.30;;;2.50;;
5622;SDS011;2833;50.432;10.706;2024-03-17T04:14:27;4.17;;;2.90;;
5622;SDS011;2833;50.432;10.706;2024-03-17T04:16:55;3.10;;;2.43;;
5622;SDS011;2833;50.432;10.706;2024-03-17T04:19:20;3.53;;;2.60;;
5622;SDS011;2833;50.432;10.706;2024-03-17T04:21:46;9.03;;;2.60;;
5622;SDS011;2833;50.432;10.706;2024-03-17T04:24:12;3.10;;;2.67;;
5622;SDS011;2833;50.432;10.706;2024-03-17T04:26:37;2.93;;;2.60;;
5622;SDS011;2833;50.432;10.706;2024-03-17T04:29:03;2.47;;;2.20;;
5622;SDS011;2833;50.432;10.706;2024-03-17T04:31:28;2.60;;;2.13;;
5622;SDS011;2833;50.432;10.706;2024-03-17T04:33:54;2.77;;;2.57;;
5622;SDS011;2833;50.432;10.706;2024-03-17T04:36:19;3.80;;;2.70;;
5622;SDS011;2833;50.432;10.706;2024-03-17T04:38:44;4.40;;;2.73;;
5622;SDS011;2833;50.432;10.706;2024-03-17T04:41:09;4.33;;;2.83;;
5622;SDS011;2833;50.432;10.706;2024-03-17T04:43:35;9.70;;;4.07;;
5622;SDS011;2833;50.432;10.706;2024-03-17T04:46:01;8.63;;;3.90;;
5622;SDS011;2833;50.432;10.706;2024-03-17T04:48:28;5.00;;;3.00;;
5622;SDS011;2833;50.432;10.706;2024-03-17T04:50:53;2.73;;;2.40;;
5622;SDS011;2833;50.432;10.706;2024-03-17T04:53:19;4.33;;;3.00;;
5622;SDS011;2833;50.432;10.706;2024-03-17T04:55:45;5.33;;;2.80;;
5622;SDS011;2833;50.432;10.706;2024-03-17T04:58:10;2.80;;;2.60;;
5622;SDS011;2833;50.432;10.706;2024-03-17T05:00:36;6.13;;;3.27;;
5622;SDS011;2833;50.432;10.706;2024-03-17T05:03:01;4.13;;;2.93;;
5622;SDS011;2833;50.432;10.706;2024-03-17T05:05:26;7.63;;;3.10;;
5622;SDS011;2833;50.432;10.706;2024-03-17T05:07:51;3.80;;;2.97;;
5622;SDS011;2833;50.432;10.706;2024-03-17T05:10:17;9.50;;;4.20;;
5622;SDS011;2833;50.432;10.706;2024-03-17T05:12:42;8.00;;;4.90;;
5622;SDS011;2833;50.432;10.706;2024-03-17T05:15:07;9.83;;;4.53;;
5622;SDS011;2833;50.432;10.706;2024-03-17T05:17:33;6.87;;;4.67;;
5622;SDS011;2833;50.432;10.706;2024-03-17T05:19:58;7.87;;;4.60;;
5622;SDS011;2833;50.432;10.706;2024-03-17T05:22:23;9.43;;;5.00;;
5622;SDS011;2833;50.432;10.706;2024-03-17T05:24:49;7.13;;;4.53;;
5622;SDS011;2833;50.432;10.706;2024-03-17T05:27:14;6.70;;;3.87;;
5622;SDS011;2833;50.432;10.706;2024-03-17T05:29:40;6.20;;;3.80;;
5622;SDS011;2833;50.432;10.706;2024-03-17T05:32:05;5.93;;;3.80;;
5622;SDS011;2833;50.432;10.706;2024-03-17T05:34:30;6.77;;;3.40;;
5622;SDS011;2833;50.432;10.706;2024-03-17T05:36:56;5.50;;;3.27;;
5622;SDS011;2833;50.432;10.706;2024-03-17T05:39:21;5.50;;;3.07;;
5622;SDS011;2833;50.432;10.706;2024-03-17T05:41:47;3.03;;;2.73;;
5622;SDS011;2833;50.432;10.706;2024-03-17T05:44:14;2.77;;;2.57;;
5622;SDS011;2833;50.432;10.706;2024-03-17T05:46:40;3.20;;;2.87;;
5622;SDS011;2833;50.432;10.706;2024-03-17T05:49:05;3.17;;;2.50;;
5622;SDS011;2833;50.432;10.706;2024-03-17T05:51:31;3.10;;;2.60;;
5622;SDS011;2833;50.432;10.706;2024-03-17T05:53:57;2.90;;;2.60;;
5622;SDS011;2833;50.432;10.706;2024-03-17T05:56:23;3.00;;;2.70;;
5622;SDS011;2833;50.432;10.706;2024-03-17T05:58:49;4.03;;;2.97;;
5622;SDS011;2833;50.432;10.706;2024-03-17T06:01:14;2.40;;;2.20;;
5622;SDS011;2833;50.432;10.706;2024-03-17T06:03:39;3.23;;;2.93;;
5622;SDS011;2833;50.432;10.706;2024-03-17T06:06:05;3.17;;;2.60;;
5622;SDS011;2833;50.432;10.706;2024-03-17T06:08:34;3.60;;;2.73;;
5622;SDS011;2833;50.432;10.706;2024-03-17T06:11:00;2.43;;;2.23;;
5622;SDS011;2833;50.432;10.706;2024-03-17T06:13:26;3.17;;;2.80;;
5622;SDS011;2833;50.432;10.706;2024-03-17T06:15:51;9.40;;;6.30;;
5622;SDS011;2833;50.432;10.706;2024-03-17T06:18:16;10.80;;;5.63;;
5622;SDS011;2833;50.432;10.706;2024-03-17T06:20:46;7.53;;;4.70;;
5622;SDS011;2833;50.432;10.706;2024-03-17T06:23:11;5.00;;;4.00;;
5622;SDS011;2833;50.432;10.706;2024-03-17T06:25:40;5.67;;;4.30;;
5622;SDS011;2833;50.432;10.706;2024-03-17T06:28:06;5.90;;;3.50;;
5622;SDS011;2833;50.432;10.706;2024-03-17T06:30:32;6.03;;;4.00;;
5622;SDS011;2833;50.432;10.706;2024-03-17T06:32:57;6.30;;;4.10;;
5622;SDS011;2833;50.432;10.706;2024-03-17T06:35:23;6.60;;;3.83;;
5622;SDS011;2833;50.432;10.706;2024-03-17T06:37:51;3.97;;;3.27;;
5622;SDS011;2833;50.432;10.706;2024-03-17T06:40:19;8.37;;;5.80;;
5622;SDS011;2833;50.432;10.706;2024-03-17T06:42:44;7.70;;;4.67;;
5622;SDS011;2833;50.432;10.706;2024-03-17T06:45:10;4.57;;;3.50;;
5622;SDS011;2833;50.432;10.706;2024-03-17T06:47:35;5.67;;;3.97;;
5622;SDS011;2833;50.432;10.706;2024-03-17T06:50:02;7.47;;;4.17;;
5622;SDS011;2833;50.432;10.706;2024-03-17T06:52:28;6.97;;;4.50;;
5622;SDS011;2833;50.432;10.706;2024-03-17T06:54:53;4.23;;;3.80;;
5622;SDS011;2833;50.432;10.706;2024-03-17T06:57:18;4.13;;;3.63;;
5622;SDS011;2833;50.432;10.706;2024-03-17T06:59:44;4.90;;;3.90;;
5622;SDS011;2833;50.432;10.706;2024-03-17T07:02:11;6.10;;;4.30;;
5622;SDS011;2833;50.432;10.706;2024-03-17T07:04:42;3.90;;;3.47;;
5622;SDS011;2833;50.432;10.706;2024-03-17T07:07:07;6.83;;;4.70;;
5622;SDS011;2833;50.432;10.706;2024-03-17T07:09:33;5.57;;;4.47;;
5622;SDS011;2833;50.432;10.706;2024-03-17T07:11:58;5.90;;;4.00;;
5622;SDS011;2833;50.432;10.706;2024-03-17T07:14:23;4.93;;;4.10;;
5622;SDS011;2833;50.432;10.706;2024-03-17T07:16:51;3.47;;;3.17;;
5622;SDS011;2833;50.432;10.706;2024-03-17T07:19:16;4.03;;;3.03;;
5622;SDS011;2833;50.432;10.706;2024-03-17T07:21:41;3.90;;;3.07;;
5622;SDS011;2833;50.432;10.706;2024-03-17T07:24:06;6.00;;;3.60;;
5622;SDS011;2833;50.432;10.706;2024-03-17T07:26:31;6.07;;;4.87;;
5622;SDS011;2833;50.432;10.706;2024-03-17T07:28:57;8.10;;;4.97;;
5622;SDS011;2833;50.432;10.706;2024-03-17T07:31:23;7.30;;;5.23;;
5622;SDS011;2833;50.432;10.706;2024-03-17T07:33:48;4.50;;;3.70;;
5622;SDS011;2833;50.432;10.706;2024-03-17T07:36:14;13.93;;;6.23;;
5622;SDS011;2833;50.432;10.706;2024-03-17T07:38:39;14.60;;;6.10;;
5622;SDS011;2833;50.432;10.706;2024-03-17T07:41:05;13.80;;;8.10;;
5622;SDS011;2833;50.432;10.706;2024-03-17T07:43:31;26.73;;;13.50;;
5622;SDS011;2833;50.432;10.706;2024-03-17T07:46:00;12.30;;;7.60;;
5622;SDS011;2833;50.432;10.706;2024-03-17T07:48:25;7.60;;;3.97;;
5622;SDS011;2833;50.432;10.706;2024-03-17T07:51:00;5.00;;;4.00;;
5622;SDS011;2833;50.432;10.706;2024-03-17T07:53:27;10.17;;;5.83;;
5622;SDS011;2833;50.432;10.706;2024-03-17T07:58:27;4.83;;;4.00;;
5622;SDS011;2833;50.432;10.706;2024-03-17T08:00:52;8.33;;;5.67;;
5622;SDS011;2833;50.432;10.706;2024-03-17T08:03:18;8.47;;;5.30;;
5622;SDS011;2833;50.432;10.706;2024-03-17T08:05:43;6.53;;;4.30;;
5622;SDS011;2833;50.432;10.706;2024-03-17T08:08:12;4.97;;;4.20;;
5622;SDS011;2833;50.432;10.706;2024-03-17T08:10:38;4.50;;;4.10;;
5622;SDS011;2833;50.432;10.706;2024-03-17T08:13:04;5.60;;;4.10;;
5622;SDS011;2833;50.432;10.706;2024-03-17T08:15:30;12.63;;;6.70;;
5622;SDS011;2833;50.432;10.706;2024-03-17T08:17:55;22.80;;;12.33;;
5622;SDS011;2833;50.432;10.706;2024-03-17T08:20:20;5.93;;;4.77;;
5622;SDS011;2833;50.432;10.706;2024-03-17T08:22:45;4.80;;;3.30;;
5622;SDS011;2833;50.432;10.706;2024-03-17T08:25:11;5.80;;;3.67;;
5622;SDS011;2833;50.432;10.706;2024-03-17T08:27:36;5.60;;;4.27;;
5622;SDS011;2833;50.432;10.706;2024-03-17T08:30:01;6.20;;;4.10;;
5622;SDS011;2833;50.432;10.706;2024-03-17T08:32:27;4.97;;;3.83;;
5622;SDS011;2833;50.432;10.706;2024-03-17T08:34:52;4.97;;;3.37;;
5622;SDS011;2833;50.432;10.706;2024-03-17T08:37:17;6.90;;;4.60;;
5622;SDS011;2833;50.432;10.706;2024-03-17T08:39:42;4.83;;;4.00;;
5622;SDS011;2833;50.432;10.706;2024-03-17T08:42:07;15.10;;;9.20;;
5622;SDS011;2833;50.432;10.706;2024-03-17T08:44:32;22.53;;;15.60;;
5622;SDS011;2833;50.432;10.706;2024-03-17T08:46:58;14.40;;;8.90;;
5622;SDS011;2833;50.432;10.706;2024-03-17T08:49:23;18.83;;;12.47;;
5622;SDS011;2833;50.432;10.706;2024-03-17T08:51:48;10.60;;;7.90;;
5622;SDS011;2833;50.432;10.706;2024-03-17T08:54:13;13.23;;;8.90;;
5622;SDS011;2833;50.432;10.706;2024-03-17T08:56:39;4.57;;;3.50;;
5622;SDS011;2833;50.432;10.706;2024-03-17T08:59:04;7.83;;;5.00;;
5622;SDS011;2833;50.432;10.706;2024-03-17T09:01:29;7.20;;;4.20;;
5622;SDS011;2833;50.432;10.706;2024-03-17T09:03:54;6.47;;;5.07;;
5622;SDS011;2833;50.432;10.706;2024-03-17T09:06:21;5.93;;;3.77;;
5622;SDS011;2833;50.432;10.706;2024-03-17T09:08:47;4.73;;;4.23;;
5622;SDS011;2833;50.432;10.706;2024-03-17T09:11:13;8.90;;;5.33;;
5622;SDS011;2833;50.432;10.706;2024-03-17T09:13:38;9.47;;;5.30;;
5622;SDS011;2833;50.432;10.706;2024-03-17T09:16:04;9.30;;;4.97;;
5622;SDS011;2833;50.432;10.706;2024-03-17T09:18:29;11.77;;;6.23;;
5622;SDS011;2833;50.432;10.706;2024-03-17T09:20:59;11.40;;;8.70;;
5622;SDS011;2833;50.432;10.706;2024-03-17T09:23:26;7.73;;;5.53;;
5622;SDS011;2833;50.432;10.706;2024-03-17T09:25:56;14.40;;;8.80;;
5622;SDS011;2833;50.432;10.706;2024-03-17T09:28:21;16.50;;;9.00;;
5622;SDS011;2833;50.432;10.706;2024-03-17T09:30:47;10.27;;;6.07;;
5622;SDS011;2833;50.432;10.706;2024-03-17T09:33:12;9.50;;;5.63;;
5622;SDS011;2833;50.432;10.706;2024-03-17T09:35:37;9.37;;;5.00;;
5622;SDS011;2833;50.432;10.706;2024-03-17T09:38:02;8.53;;;5.70;;
5622;SDS011;2833;50.432;10.706;2024-03-17T09:40:29;8.13;;;5.10;;
5622;SDS011;2833;50.432;10.706;2024-03-17T09:42:55;7.70;;;5.57;;
5622;SDS011;2833;50.432;10.706;2024-03-17T09:45:21;12.30;;;6.40;;
5622;SDS011;2833;50.432;10.706;2024-03-17T09:47:46;21.67;;;13.00;;
5622;SDS011;2833;50.432;10.706;2024-03-17T09:50:14;28.30;;;18.33;;
5622;SDS011;2833;50.432;10.706;2024-03-17T09:52:40;8.70;;;5.83;;
5622;SDS011;2833;50.432;10.706;2024-03-17T09:55:16;14.60;;;8.53;;
5622;SDS011;2833;50.432;10.706;2024-03-17T09:57:42;10.27;;;5.63;;
5622;SDS011;2833;50.432;10.706;2024-03-17T10:00:11;10.73;;;6.60;;
5622;SDS011;2833;50.432;10.706;2024-03-17T10:05:17;17.70;;;11.77;;
5622;SDS011;2833;50.432;10.706;2024-03-17T10:07:43;9.73;;;6.20;;
5622;SDS011;2833;50.432;10.706;2024-03-17T10:10:11;10.03;;;6.07;;
5622;SDS011;2833;50.432;10.706;2024-03-17T10:12:41;18.37;;;11.83;;
5622;SDS011;2833;50.432;10.706;2024-03-17T10:15:08;9.17;;;6.80;;
5622;SDS011;2833;50.432;10.706;2024-03-17T10:17:35;9.23;;;5.57;;
5622;SDS011;2833;50.432;10.706;2024-03-17T10:20:11;8.80;;;5.97;;
5622;SDS011;2833;50.432;10.706;2024-03-17T10:22:36;12.37;;;6.30;;
5622;SDS011;2833;50.432;10.706;2024-03-17T10:25:01;9.40;;;6.10;;
5622;SDS011;2833;50.432;10.706;2024-03-17T10:27:26;9.33;;;6.00;;
5622;SDS011;2833;50.432;10.706;2024-03-17T10:29:52;9.90;;;6.07;;
5622;SDS011;2833;50.432;10.706;2024-03-17T10:32:17;8.10;;;5.90;;
5622;SDS011;2833;50.432;10.706;2024-03-17T10:34:42;9.77;;;7.40;;
5622;SDS011;2833;50.432;10.706;2024-03-17T10:37:15;11.50;;;6.93;;
5622;SDS011;2833;50.432;10.706;2024-03-17T10:39:41;9.40;;;6.67;;
5622;SDS011;2833;50.432;10.706;2024-03-17T10:42:07;14.60;;;6.57;;
5622;SDS011;2833;50.432;10.706;2024-03-17T10:44:37;8.30;;;5.73;;
5622;SDS011;2833;50.432;10.706;2024-03-17T10:47:03;7.47;;;5.60;;
5622;SDS011;2833;50.432;10.706;2024-03-17T10:49:33;12.40;;;7.30;;
5622;SDS011;2833;50.432;10.706;2024-03-17T10:51:59;15.40;;;7.60;;
5622;SDS011;2833;50.432;10.706;2024-03-17T10:54:25;8.50;;;6.00;;
5622;SDS011;2833;50.432;10.706;2024-03-17T10:59:39;9.60;;;6.50;;
5622;SDS011;2833;50.432;10.706;2024-03-17T11:02:13;11.03;;;6.70;;
5622;SDS011;2833;50.432;10.706;2024-03-17T11:04:41;8.20;;;5.20;;
5622;SDS011;2833;50.432;10.706;2024-03-17T11:07:08;9.97;;;6.03;;
5622;SDS011;2833;50.432;10.706;2024-03-17T11:09:40;8.20;;;5.60;;
5622;SDS011;2833;50.432;10.706;2024-03-17T11:12:06;14.10;;;8.10;;
5622;SDS011;2833;50.432;10.706;2024-03-17T11:14:54;11.00;;;7.27;;
5622;SDS011;2833;50.432;10.706;2024-03-17T11:17:36;9.30;;;7.13;;
5622;SDS011;2833;50.432;10.706;2024-03-17T11:20:14;12.00;;;6.93;;
5622;SDS011;2833;50.432;10.706;2024-03-17T11:22:45;12.20;;;6.93;;
5622;SDS011;2833;50.432;10.706;2024-03-17T11:27:51;15.83;;;8.20;;
5622;SDS011;2833;50.432;10.706;2024-03-17T11:33:00;13.63;;;7.30;;
5622;SDS011;2833;50.432;10.706;2024-03-17T11:35:25;12.70;;;6.80;;
5622;SDS011;2833;50.432;10.706;2024-03-17T11:37:51;13.70;;;7.10;;
5622;SDS011;2833;50.432;10.706;2024-03-17T11:40:27;10.50;;;6.50;;
5622;SDS011;2833;50.432;10.706;2024-03-17T11:43:01;12.10;;;6.27;;
5622;SDS011;2833;50.432;10.706;2024-03-17T11:45:27;9.30;;;5.97;;
5622;SDS011;2833;50.432;10.706;2024-03-17T11:47:52;10.27;;;6.63;;
5622;SDS011;2833;50.432;10.706;2024-03-17T11:50:18;8.70;;;5.50;;
5622;SDS011;2833;50.432;10.706;2024-03-17T11:52:43;9.80;;;5.87;;
5622;SDS011;2833;50.432;10.706;2024-03-17T11:55:17;9.37;;;6.20;;
5622;SDS011;2833;50.432;10.706;2024-03-17T11:57:43;8.93;;;6.37;;
5622;SDS011;2833;50.432;10.706;2024-03-17T12:00:20;10.70;;;5.60;;
5622;SDS011;2833;50.432;10.706;2024-03-17T12:02:48;7.80;;;5.80;;
5622;SDS011;2833;50.432;10.706;2024-03-17T12:05:13;7.70;;;5.27;;
5622;SDS011;2833;50.432;10.706;2024-03-17T12:07:41;11.90;;;6.20;;
5622;SDS011;2833;50.432;10.706;2024-03-17T12:10:07;9.87;;;7.20;;
5622;SDS011;2833;50.432;10.706;2024-03-17T12:12:34;12.97;;;6.10;;
5622;SDS011;2833;50.432;10.706;2024-03-17T12:15:00;9.73;;;6.40;;
5622;SDS011;2833;50.432;10.706;2024-03-17T12:17:25;9.53;;;5.80;;
5622;SDS011;2833;50.432;10.706;2024-03-17T12:19:51;8.33;;;5.10;;
5622;SDS011;2833;50.432;10.706;2024-03-17T12:22:20;11.07;;;6.73;;
5622;SDS011;2833;50.432;10.706;2024-03-17T12:24:53;12.10;;;6.60;;
5622;SDS011;2833;50.432;10.706;2024-03-17T12:27:22;20.10;;;11.47;;
5622;SDS011;2833;50.432;10.706;2024-03-17T12:29:48;16.07;;;9.70;;
5622;SDS011;2833;50.432;10.706;2024-03-17T12:32:14;11.40;;;7.47;;
5622;SDS011;2833;50.432;10.706;2024-03-17T12:34:41;21.40;;;13.03;;
5622;SDS011;2833;50.432;10.706;2024-03-17T12:37:06;20.17;;;13.10;;
5622;SDS011;2833;50.432;10.706;2024-03-17T12:39:32;14.57;;;9.60;;
5622;SDS011;2833;50.432;10.706;2024-03-17T12:44:27;7.80;;;5.77;;
5622;SDS011;2833;50.432;10.706;2024-03-17T12:46:55;11.00;;;7.43;;
5622;SDS011;2833;50.432;10.706;2024-03-17T12:49:21;11.53;;;7.10;;
5622;SDS011;2833;50.432;10.706;2024-03-17T12:51:46;8.50;;;6.20;;
5622;SDS011;2833;50.432;10.706;2024-03-17T12:54:12;7.40;;;5.50;;
5622;SDS011;2833;50.432;10.706;2024-03-17T12:56:37;9.43;;;6.30;;
5622;SDS011;2833;50.432;10.706;2024-03-17T12:59:21;7.27;;;5.23;;
5622;SDS011;2833;50.432;10.706;2024-03-17T13:02:07;7.80;;;4.90;;
5622;SDS011;2833;50.432;10.706;2024-03-17T13:04:34;8.00;;;5.30;;
5622;SDS011;2833;50.432;10.706;2024-03-17T13:07:08;7.80;;;5.03;;
5622;SDS011;2833;50.432;10.706;2024-03-17T13:09:33;8.60;;;5.07;;
5622;SDS011;2833;50.432;10.706;2024-03-17T13:11:59;12.70;;;6.43;;
5622;SDS011;2833;50.432;10.706;2024-03-17T13:14:24;8.30;;;5.50;;
5622;SDS011;2833;50.432;10.706;2024-03-17T13:16:49;8.53;;;5.43;;
5622;SDS011;2833;50.432;10.706;2024-03-17T13:19:14;9.00;;;5.53;;
5622;SDS011;2833;50.432;10.706;2024-03-17T13:21:39;11.50;;;5.57;;
5622;SDS011;2833;50.432;10.706;2024-03-17T13:24:05;8.23;;;5.57;;
5622;SDS011;2833;50.432;10.706;2024-03-17T13:26:30;10.77;;;5.80;;
5622;SDS011;2833;50.432;10.706;2024-03-17T13:28:55;8.93;;;6.03;;
5622;SDS011;2833;50.432;10.706;2024-03-17T13:31:20;7.40;;;4.80;;
5622;SDS011;2833;50.432;10.706;2024-03-17T13:33:46;7.70;;;5.40;;
5622;SDS011;2833;50.432;10.706;2024-03-17T13:36:12;9.60;;;6.20;;
5622;SDS011;2833;50.432;10.706;2024-03-17T13:38:37;7.80;;;5.33;;
5622;SDS011;2833;50.432;10.706;2024-03-17T13:41:04;9.47;;;6.07;;
5622;SDS011;2833;50.432;10.706;2024-03-17T13:43:29;8.60;;;5.53;;
5622;SDS011;2833;50.432;10.706;2024-03-17T13:45:55;9.30;;;5.67;;
5622;SDS011;2833;50.432;10.706;2024-03-17T13:48:20;9.33;;;5.93;;
5622;SDS011;2833;50.432;10.706;2024-03-17T13:50:45;8.80;;;5.83;;
5622;SDS011;2833;50.432;10.706;2024-03-17T13:53:12;9.67;;;5.90;;
5622;SDS011;2833;50.432;10.706;2024-03-17T13:55:37;9.63;;;5.93;;
5622;SDS011;2833;50.432;10.706;2024-03-17T13:58:03;6.47;;;4.77;;
5622;SDS011;2833;50.432;10.706;2024-03-17T14:00:29;7.70;;;5.30;;
5622;SDS011;2833;50.432;10.706;2024-03-17T14:02:56;7.43;;;4.97;;
5622;SDS011;2833;50.432;10.706;2024-03-17T14:05:21;8.13;;;5.13;;
5622;SDS011;2833;50.432;10.706;2024-03-17T14:07:47;13.40;;;5.70;;
5622;SDS011;2833;50.432;10.706;2024-03-17T14:10:14;7.90;;;5.73;;
5622;SDS011;2833;50.432;10.706;2024-03-17T14:12:39;9.70;;;5.23;;
5622;SDS011;2833;50.432;10.706;2024-03-17T14:15:04;6.70;;;4.73;;
5622;SDS011;2833;50.432;10.706;2024-03-17T14:17:30;9.73;;;5.87;;
5622;SDS011;2833;50.432;10.706;2024-03-17T14:19:56;8.50;;;4.93;;
5622;SDS011;2833;50.432;10.706;2024-03-17T14:22:21;8.13;;;4.87;;
5622;SDS011;2833;50.432;10.706;2024-03-17T14:24:46;8.00;;;5.00;;
5622;SDS011;2833;50.432;10.706;2024-03-17T14:27:11;8.40;;;5.03;;
5622;SDS011;2833;50.432;10.706;2024-03-17T14:29:37;8.40;;;5.63;;
5622;SDS011;2833;50.432;10.706;2024-03-17T14:32:02;13.63;;;7.63;;
5622;SDS011;2833;50.432;10.706;2024-03-17T14:34:28;12.53;;;6.50;;
5622;SDS011;2833;50.432;10.706;2024-03-17T14:36:59;7.73;;;5.40;;
5622;SDS011;2833;50.432;10.706;2024-03-17T14:39:24;8.83;;;5.23;;
5622;SDS011;2833;50.432;10.706;2024-03-17T14:41:53;11.57;;;5.50;;
5622;SDS011;2833;50.432;10.706;2024-03-17T14:44:18;9.97;;;6.10;;
5622;SDS011;2833;50.432;10.706;2024-03-17T14:46:44;9.10;;;5.73;;
5622;SDS011;2833;50.432;10.706;2024-03-17T14:49:09;6.70;;;4.70;;
5622;SDS011;2833;50.432;10.706;2024-03-17T14:51:34;7.73;;;4.77;;
5622;SDS011;2833;50.432;10.706;2024-03-17T14:53:59;6.80;;;4.90;;
5622;SDS011;2833;50.432;10.706;2024-03-17T14:56:25;9.43;;;6.00;;
5622;SDS011;2833;50.432;10.706;2024-03-17T14:58:50;7.73;;;5.30;;
5622;SDS011;2833;50.432;10.706;2024-03-17T15:01:16;7.87;;;5.50;;
5622;SDS011;2833;50.432;10.706;2024-03-17T15:03:41;7.37;;;5.43;;
5622;SDS011;2833;50.432;10.706;2024-03-17T15:06:08;8.67;;;5.23;;
5622;SDS011;2833;50.432;10.706;2024-03-17T15:08:34;8.80;;;5.27;;